SGEN/ENO METAR and TAF weather

Enter ICAO airport designator
Station Type Date Time Source
SGEN METAR 2019/05/27 09:00 UTC NOAA

SGEN 270900Z 09005KT 8000 NSC 16/15 Q1011


Station Type Date Time Source
SGEN Decoded METAR 2019/05/27 09:00 UTC NOAA

Encarnacion, Paraguay (SGEN) 27-19S 055-50W 91M
May 27, 2019 - 05:00 AM EDT / 2019.05.27 0900 UTC
Wind: from the E (090 degrees) at 6 MPH (5 KT):0
Visibility: 4 mile(s):0
Temperature: 60 F (16 C)
Dew Point: 59 F (15 C)
Relative Humidity: 93%
Pressure (altimeter): 29.85 in. Hg (1011 hPa)
ob: SGEN 270900Z 09005KT 8000 NSC 16/15 Q1011
cycle: 9

Station Type Date Time Source
SGEN TAF 2019/05/27 06:00 UTC NOAA

TAF SGEN 270400Z 2706/2806 05003KT 9999 BKN030 TX21/2719Z TN17/2709Z
BECMG 2706/2708 VCTS 9999 BKN027 FEW040CB
BECMG 2710/2713 VRB05KT 7000 TSRA BKN020 FEW040CB
BECMG 2714/2717 8000 -RA BKN020
BECMG 2719/2721 21007KT 9999 BKN027

Example: see airport list